createdAt,value
2022-09-06T00:02:33.873Z,99612.00
2022-09-06T00:07:36.643Z,99587.47
2022-09-06T00:12:39.265Z,99588.38
2022-09-06T00:18:06.071Z,99476.69
2022-09-06T00:23:10.055Z,99531.59
2022-09-06T00:28:31.080Z,99595.44
2022-09-06T00:33:33.384Z,99598.00
2022-09-06T00:38:36.365Z,99564.66
2022-09-06T00:43:57.258Z,99552.38
2022-09-06T00:49:25.882Z,99467.63
2022-09-06T00:54:29.621Z,99606.63
2022-09-06T00:59:34.473Z,99548.13
2022-09-06T01:04:56.058Z,99545.47
2022-09-06T01:10:31.210Z,99587.63
2022-09-06T01:16:21.309Z,99595.38
2022-09-06T01:21:50.500Z,99551.63
2022-09-06T01:26:52.795Z,99590.09
2022-09-06T01:32:49.126Z,99592.78
2022-09-06T01:37:51.552Z,99489.59
2022-09-06T01:42:54.324Z,99440.69
2022-09-06T01:48:25.325Z,99529.78
2022-09-06T01:53:41.622Z,99604.06
2022-09-06T01:59:23.632Z,99604.16
2022-09-06T02:04:30.567Z,99422.31
2022-09-06T02:09:37.808Z,99566.41
2022-09-06T02:15:03.739Z,99535.88
2022-09-06T02:20:29.436Z,99575.16
2022-09-06T02:25:38.942Z,99598.78
2022-09-06T02:30:43.323Z,99605.91
2022-09-06T02:36:06.944Z,99599.59
2022-09-06T02:41:09.628Z,99542.66
2022-09-06T02:46:12.883Z,99533.06
2022-09-06T02:51:15.261Z,99588.13
2022-09-06T02:56:17.556Z,99595.16
2022-09-06T03:01:38.777Z,99538.31
2022-09-06T03:06:59.745Z,99598.56
2022-09-06T03:12:02.123Z,99574.91
2022-09-06T03:17:04.856Z,99525.19
2022-09-06T03:22:25.967Z,99561.00
2022-09-06T03:27:28.351Z,99599.41
2022-09-06T03:32:49.137Z,99606.41
2022-09-06T03:37:51.384Z,99605.50
2022-09-06T03:42:53.635Z,99607.22
2022-09-06T03:48:15.349Z,99606.31
2022-09-06T03:53:39.652Z,99595.84
2022-09-06T03:58:41.987Z,99591.47
2022-09-06T04:04:05.764Z,99562.63
2022-09-06T04:09:08.196Z,99581.03
2022-09-06T04:14:10.797Z,99591.50
2022-09-06T04:19:31.296Z,99609.91
2022-09-06T04:24:33.671Z,99620.44
2022-09-06T04:29:54.349Z,99624.00
2022-09-06T04:35:15.294Z,99589.94
2022-09-06T04:40:17.711Z,99589.00
2022-09-06T04:45:20.047Z,99608.28
2022-09-06T04:50:22.348Z,99596.00
2022-09-06T04:55:43.104Z,99607.38
2022-09-06T05:01:04.185Z,99614.44
2022-09-06T05:06:18.422Z,99576.81
2022-09-06T05:11:20.912Z,99556.63
2022-09-06T05:16:42.210Z,99561.94
2022-09-06T05:21:44.509Z,99617.03
2022-09-06T05:26:46.824Z,99582.88
2022-09-06T05:31:49.254Z,99591.66
2022-09-06T05:37:10.351Z,99565.41
2022-09-06T05:42:17.182Z,99589.00
2022-09-06T05:47:21.586Z,99603.00
2022-09-06T05:52:42.340Z,99607.47
2022-09-06T05:57:44.662Z,99550.66
2022-09-06T06:03:05.483Z,99583.88
2022-09-06T06:08:26.945Z,99607.56
2022-09-06T06:13:48.032Z,99598.84
2022-09-06T06:18:52.457Z,99496.63
2022-09-06T06:24:13.560Z,99580.53
2022-09-06T06:29:34.648Z,99612.81
2022-09-06T06:34:36.931Z,99612.03
2022-09-06T06:39:39.313Z,99605.09
2022-09-06T06:45:03.242Z,99590.28
2022-09-06T06:50:26.565Z,99580.69
2022-09-06T06:55:28.961Z,99597.41
2022-09-06T07:00:31.246Z,99496.03
2022-09-06T07:11:16.092Z,99624.72
2022-09-06T07:16:37.174Z,99582.88
2022-09-06T07:21:40.006Z,99567.13
2022-09-06T07:26:42.469Z,99582.06
2022-09-06T07:37:07.103Z,99575.19
2022-09-06T07:42:09.767Z,99570.81
2022-09-06T07:57:57.213Z,99569.19
2022-09-06T08:03:04.668Z,99564.09
2022-09-06T08:13:51.785Z,99557.16
2022-09-06T08:18:58.683Z,99578.97
2022-09-06T08:24:09.892Z,99575.50
2022-09-06T08:29:12.799Z,99575.53
2022-09-06T08:34:16.232Z,99556.34
2022-09-06T08:39:18.705Z,99538.09
2022-09-06T08:50:06.343Z,99522.53
2022-09-06T08:55:40.958Z,99565.31
2022-09-06T09:00:50.327Z,99557.44
2022-09-06T09:05:53.775Z,99563.59
2022-09-06T09:11:03.178Z,99510.34
2022-09-06T09:16:06.474Z,99563.56
2022-09-06T09:21:09.774Z,99550.47
2022-09-06T09:26:15.312Z,99575.75
2022-09-06T09:31:30.159Z,99479.81
2022-09-06T09:36:33.316Z,99540.03
2022-09-06T09:41:38.653Z,99532.19
2022-09-06T09:46:42.093Z,99516.47
2022-09-06T09:51:47.494Z,99520.84
2022-09-06T09:56:54.168Z,99568.81
2022-09-06T10:02:00.313Z,99518.19
2022-09-06T10:07:10.686Z,99571.41
2022-09-06T10:12:18.368Z,99565.28
2022-09-06T10:17:50.687Z,99536.56
2022-09-06T10:22:55.939Z,99556.59
2022-09-06T10:28:11.657Z,99546.19
2022-09-06T10:33:21.267Z,99542.69
2022-09-06T10:38:42.471Z,99509.59
2022-09-06T10:44:03.344Z,99540.13
2022-09-06T10:49:07.523Z,99536.63
2022-09-06T10:54:12.421Z,99525.31
2022-09-06T10:59:36.684Z,99546.28
2022-09-06T11:10:24.338Z,99473.91
2022-09-06T11:15:30.434Z,99489.63
2022-09-06T11:20:47.249Z,99408.59
2022-09-06T11:26:32.816Z,99473.94
2022-09-06T11:37:32.908Z,99501.84
2022-09-06T11:42:44.182Z,99508.81
2022-09-06T11:47:53.787Z,99439.09
2022-09-06T11:53:05.012Z,99496.63
2022-09-06T11:58:33.534Z,99493.13
2022-09-06T12:09:42.916Z,99488.75
2022-09-06T12:14:49.060Z,99491.38
2022-09-06T12:20:06.279Z,99490.50
2022-09-06T12:25:20.446Z,99474.81
2022-09-06T12:30:39.687Z,99484.41
2022-09-06T12:35:57.878Z,99444.28
2022-09-06T12:41:02.024Z,99434.69
2022-09-06T12:46:08.067Z,99439.94
2022-09-06T12:51:16.497Z,99480.88
2022-09-06T12:56:21.830Z,99478.28
2022-09-06T13:01:33.183Z,99445.19
2022-09-06T13:06:40.203Z,99458.25
2022-09-06T13:11:51.809Z,99409.44
2022-09-06T13:16:57.404Z,99481.78
2022-09-06T13:22:00.580Z,99456.50
2022-09-06T13:27:24.851Z,99480.06
2022-09-06T13:32:28.353Z,99431.25
2022-09-06T13:37:32.859Z,99447.78
2022-09-06T13:42:39.316Z,99386.81
2022-09-06T13:47:41.619Z,99446.03
2022-09-06T13:52:46.100Z,99411.16
2022-09-06T13:57:48.475Z,99430.34
2022-09-06T14:02:51.352Z,99446.03
2022-09-06T14:07:54.008Z,99391.13
2022-09-06T14:12:56.391Z,99375.44
2022-09-06T14:17:58.725Z,99395.50
2022-09-06T14:23:01.191Z,99412.91
2022-09-06T14:28:05.131Z,99297.97
2022-09-06T14:33:07.433Z,99437.31
2022-09-06T14:38:09.731Z,99403.34
2022-09-06T14:43:12.273Z,99418.13
2022-09-06T14:48:15.097Z,99434.72
2022-09-06T14:53:38.895Z,99425.13
2022-09-06T14:58:40.820Z,99439.06
2022-09-06T15:03:47.019Z,99422.53
2022-09-06T15:08:50.032Z,99454.75
2022-09-06T15:13:52.416Z,99419.03
2022-09-06T15:18:55.758Z,99412.94
2022-09-06T15:24:17.140Z,99394.63
2022-09-06T15:29:20.676Z,99412.06
2022-09-06T15:34:26.846Z,99435.56
2022-09-06T15:39:29.264Z,99438.19
2022-09-06T15:44:31.657Z,99431.22
2022-09-06T15:49:52.922Z,99428.63
2022-09-06T15:55:13.588Z,99384.16
2022-09-06T16:00:18.166Z,99418.09
2022-09-06T16:10:43.027Z,99452.94
2022-09-06T16:16:06.288Z,99432.88
2022-09-06T16:21:12.772Z,99414.56
2022-09-06T16:26:20.588Z,99455.53
2022-09-06T16:31:25.357Z,99433.72
2022-09-06T16:36:28.625Z,99473.00
2022-09-06T16:41:42.818Z,99466.91
2022-09-06T16:46:49.985Z,99462.50
2022-09-06T16:51:52.668Z,99403.19
2022-09-06T16:56:55.338Z,99377.84
2022-09-06T17:01:57.985Z,99370.03
2022-09-06T17:07:00.550Z,99413.59
2022-09-06T17:12:04.076Z,99411.84
2022-09-06T17:17:07.781Z,99396.16
2022-09-06T17:22:11.536Z,99427.53
2022-09-06T17:27:15.373Z,99419.66
2022-09-06T17:32:17.743Z,99406.59
2022-09-06T17:37:20.086Z,99421.38
2022-09-06T17:42:22.514Z,99416.16
2022-09-06T17:47:25.137Z,99407.44
2022-09-06T17:52:46.189Z,99384.78
2022-09-06T17:57:50.746Z,99413.53
2022-09-06T18:02:55.309Z,99421.38
2022-09-06T18:07:57.720Z,99396.97
2022-09-06T18:13:06.877Z,99450.13
2022-09-06T18:18:13.142Z,99130.28
2022-09-06T18:23:35.122Z,99446.63
2022-09-06T18:28:39.118Z,99362.94
2022-09-06T18:33:42.885Z,99421.34
2022-09-06T18:38:47.943Z,99407.41
2022-09-06T18:43:50.950Z,99429.19
2022-09-06T18:48:53.363Z,99366.34
2022-09-06T18:53:57.162Z,99375.06
2022-09-06T18:59:01.280Z,99414.31
2022-09-06T19:04:09.634Z,99378.53
2022-09-06T19:09:14.955Z,99424.75
2022-09-06T19:14:17.778Z,99400.34
2022-09-06T19:19:21.678Z,99386.31
2022-09-06T19:24:24.948Z,99375.84
2022-09-06T19:29:27.808Z,99361.91
2022-09-06T19:34:30.181Z,99392.44
2022-09-06T19:39:37.180Z,99380.19
2022-09-06T19:44:39.745Z,99345.34
2022-09-06T19:49:42.148Z,99374.97
2022-09-06T19:54:44.551Z,99388.03
2022-09-06T19:59:46.895Z,99369.72
2022-09-06T20:04:49.210Z,99332.19
2022-09-06T20:09:52.637Z,99366.22
2022-09-06T20:14:55.163Z,99376.69
2022-09-06T20:19:57.549Z,99363.59
2022-09-06T20:25:00.100Z,99301.63
2022-09-06T20:30:02.407Z,99340.84
2022-09-06T20:35:06.177Z,99211.84
2022-09-06T20:40:09.624Z,99294.63
2022-09-06T20:45:13.512Z,99328.63
2022-09-06T20:50:16.908Z,99367.00
2022-09-06T20:55:19.443Z,99329.47
2022-09-06T21:00:21.735Z,99345.19
2022-09-06T21:05:24.061Z,99306.81
2022-09-06T21:10:26.336Z,99309.44
2022-09-06T21:15:29.794Z,99327.72
2022-09-06T21:20:32.336Z,99326.88
2022-09-06T21:25:34.617Z,99334.72
2022-09-06T21:30:37.025Z,99317.28
2022-09-06T21:35:39.535Z,99291.13
2022-09-06T21:40:41.839Z,99255.41
2022-09-06T21:45:44.341Z,99312.00
2022-09-06T21:50:49.126Z,99304.19
2022-09-06T21:55:51.539Z,99253.66
2022-09-06T22:00:58.882Z,99328.59
2022-09-06T22:06:11.848Z,99292.91
2022-09-06T22:11:34.447Z,99233.66
2022-09-06T22:16:38.416Z,99266.75
2022-09-06T22:21:40.908Z,99265.91
2022-09-06T22:27:01.669Z,99281.59
2022-09-06T22:32:24.417Z,99263.34
2022-09-06T22:37:26.672Z,99289.44
2022-09-06T22:42:47.554Z,99238.84
2022-09-06T22:47:51.251Z,99265.06
2022-09-06T22:52:54.131Z,99251.94
2022-09-06T22:58:15.079Z,99278.94
2022-09-06T23:03:17.422Z,99245.84
2022-09-06T23:08:19.873Z,99264.13
2022-09-06T23:13:22.155Z,99245.84
2022-09-06T23:18:43.177Z,99207.50
2022-09-06T23:24:04.099Z,99250.22
2022-09-06T23:29:06.437Z,99251.94
2022-09-06T23:34:27.241Z,99211.88
2022-09-06T23:39:48.242Z,99247.63
2022-09-06T23:44:54.680Z,99230.19
2022-09-06T23:50:15.556Z,99216.28
2022-09-06T23:55:17.831Z,99251.06
